Allen, MI

1:23 PM EDT on September 21, 2014 (GMT -0400)
North Manning Street | Change Station
CLOSE
Current Station
Personal Weather Station
Location: Hillsdale, MI
Elevation: 1145 ft
Nearby Weather Stations

Elev 1145 ft 41.93 °N, 84.63 °W | Updated 8 minutes ago

Overcast
Overcast
60.8 °F
Feels Like 60.8 °F
N
9.2
Wind Variable Wind from North
Gusts 14.5 mph

Today
High -- | Low -- °F
--% Chance of Precip.
Yesterday
High -- | Low -- °F
Precip. -- in
7:25 AM 7:38 PM
Waning Crescent, 6% visible
Pressure 29.76 in
Visibility 10.0 miles
Clouds Scattered Clouds 3400 ft
Mostly Cloudy 4300 ft
Overcast 6500 ft
Dew Point 53 °F
Humidity 76%
Rainfall 0.05 in
Snow Depth Not available.
UV 2 out of 12
Pollen 1.10 out of 12
Ozone Good
PM2.5 Good
Flu Activity Not available.
METAR KJYM 211714Z AUTO 27008G18KT 10SM SCT034 BKN043 OVC065 17/11 A2976 RMK AO2 T01650113

More Conditions Fewer Conditions

Pressure 29.76 in
Visibility 10.0 miles
Clouds Scattered Clouds 3400 ft
Mostly Cloudy 4300 ft
Overcast 6500 ft
Dew Point 53 °F
Humidity 76%
Rainfall 0.05 in
Snow Depth Not available.
UV 2 out of 12
Pollen 1.10 out of 12
Ozone Good
PM2.5 Good
Flu Activity Not available.
METAR KJYM 211714Z AUTO 27008G18KT 10SM SCT034 BKN043 OVC065 17/11 A2976 RMK AO2 T01650113

More Conditions Fewer Conditions

10-Day Weather Forecast

Almanac

Astronomy

Sep. 21, 2014 Rise Set
Actual Time 7:25 AM EDT 7:38 PM EDT
Civil Twilight 6:57 AM EDT 8:05 PM EDT
Nautical Twilight 6:24 AM EDT 8:38 PM EDT
Astronomical Twilight 5:51 AM EDT 9:11 PM EDT
Moon 4:56 AM EDT 6:15 PM EDT
Length of Visible Light 13h 08m
Length of Day
12h 12m
Tomorrow will be 2m 48s shorter.
Waning Crescent, 6% of the Moon is Illuminated
Today
Waning Crescent
Sep 24
New
Oct 1
First Quarter
Oct 8
Full
Oct 15
Last Quarter

Today's Extremes

State Highs State Lows

Community

WunderPhotos

Upload Photos

1,755,197 photos uploaded!

WunderBlogs® & News

Nearby

Air Quality

  Air Quality AQ Index Pollutant
Yesterday Good
PM2.5
Yesterday Good
OZONE
Current Good
OZONE
Current Good
PM2.5
Sunday Good
OZONE
Sunday Good
PM2.5
Monday Good
OZONE
Monday Good
PM2.5

Snow Depth

Station Depth Elevation
No new snow has been reported.

Earthquake Activity

City Distance Mag. Time & Date
No recent earthquake activity has been reported nearby.
Minimum magnitude displayed is 2.5.

Coastal Water Temperatures

Place Temperature
No Stations Reporting

Nearby Weather Stations